Time;durP1;ratioP1;P1;durP2;ratioP2;P2;SDS_P1;SDS_P2;PMS_P1;PMS_P2;Temp;Humidity;BMP_temperature;BMP_pressure;BME280_temperature;BME280_humidity;BME280_pressure;Samples;Min_cycle;Max_cycle;Signal;HPM_P1;HPM_P2
2022/05/06 00:01:14;;;;;;;20.35;14.52;;;;;;;12.55;100.00;100035.59;4995144;28;20656;-76
2022/05/06 00:03:40;;;;;;;16.75;13.23;;;;;;;12.37;100.00;100024.03;4995004;28;20316;-76
2022/05/06 00:06:07;;;;;;;19.25;14.10;;;;;;;12.28;100.00;100025.47;4995146;28;20295;-75
2022/05/06 00:08:34;;;;;;;16.85;13.07;;;;;;;12.33;100.00;100028.78;4995352;28;20691;-75
2022/05/06 00:11:02;;;;;;;16.85;14.10;;;;;;;12.28;100.00;100026.34;4994957;28;20193;-75
2022/05/06 00:13:29;;;;;;;17.27;12.95;;;;;;;12.13;100.00;100029.94;4995115;28;20205;-75
2022/05/06 00:15:55;;;;;;;16.60;13.52;;;;;;;12.02;100.00;100030.53;4995101;28;20504;-75
2022/05/06 00:18:22;;;;;;;17.27;14.25;;;;;;;12.04;100.00;100019.66;4994832;28;20317;-76
2022/05/06 00:20:49;;;;;;;17.60;14.55;;;;;;;12.06;100.00;100025.84;4994068;28;20215;-76
2022/05/06 00:23:15;;;;;;;16.35;12.77;;;;;;;11.98;100.00;100020.88;4994369;28;20673;-76
2022/05/06 00:25:42;;;;;;;20.13;13.48;;;;;;;12.01;100.00;100028.81;4995925;28;20544;-75
2022/05/06 00:28:10;;;;;;;17.38;13.52;;;;;;;11.98;100.00;100028.09;4995113;28;20188;-76
2022/05/06 00:30:36;;;;;;;15.70;12.65;;;;;;;12.01;100.00;100023.41;4993955;28;20673;-75
2022/05/06 00:33:03;;;;;;;19.10;13.77;;;;;;;11.86;100.00;100025.09;4993625;28;20194;-76
2022/05/06 00:35:30;;;;;;;19.90;13.98;;;;;;;11.71;100.00;100022.41;4994093;28;20239;-76
2022/05/06 00:37:56;;;;;;;22.00;14.10;;;;;;;11.80;100.00;100025.47;4993597;28;20258;-74
2022/05/06 00:40:23;;;;;;;17.38;13.10;;;;;;;11.96;100.00;100027.31;4994614;28;20187;-76
2022/05/06 00:42:51;;;;;;;17.13;13.55;;;;;;;11.91;100.00;100029.41;4994132;28;20275;-75
2022/05/06 00:45:19;;;;;;;18.20;13.63;;;;;;;11.81;100.00;100023.66;4994371;28;20236;-74
2022/05/06 00:47:46;;;;;;;18.65;13.05;;;;;;;11.92;100.00;100033.84;4994303;28;20646;-75
2022/05/06 00:50:13;;;;;;;18.13;13.02;;;;;;;11.85;100.00;100028.78;4994201;28;20204;-76
2022/05/06 00:52:40;;;;;;;19.83;15.02;;;;;;;11.68;100.00;100023.44;4994173;28;20283;-76
2022/05/06 00:55:08;;;;;;;16.80;12.80;;;;;;;11.58;100.00;100020.41;4994774;28;20197;-75
2022/05/06 00:57:34;;;;;;;17.08;13.30;;;;;;;11.65;100.00;100029.03;4993567;28;20219;-75
2022/05/06 01:00:21;;;;;;;23.77;15.10;;;;;;;11.63;100.00;100028.25;4993905;28;20652;-75
2022/05/06 01:02:49;;;;;;;16.25;13.00;;;;;;;11.54;100.00;100024.22;4974499;28;20284;-76
2022/05/06 01:05:16;;;;;;;22.75;13.75;;;;;;;11.39;100.00;100025.06;4985532;28;20679;-75
2022/05/06 01:07:44;;;;;;;16.55;13.90;;;;;;;11.37;100.00;100029.66;4994193;28;20188;-75
2022/05/06 01:10:11;;;;;;;19.20;13.30;;;;;;;11.26;100.00;100028.44;4993666;28;20199;-77
2022/05/06 01:12:38;;;;;;;21.08;15.30;;;;;;;11.19;100.00;100023.44;4994066;28;20188;-76
2022/05/06 01:15:18;;;;;;;21.27;14.52;;;;;;;11.18;100.00;100025.28;4993571;28;20325;-76
2022/05/06 01:17:45;;;;;;;18.67;14.07;;;;;;;11.14;100.00;100023.69;4994270;28;20677;-75
2022/05/06 01:20:15;;;;;;;17.15;14.02;;;;;;;11.17;100.00;100026.25;4992514;28;20195;-76
2022/05/06 01:22:44;;;;;;;19.13;14.05;;;;;;;11.18;100.00;100027.09;4992879;28;20203;-75
2022/05/06 01:25:11;;;;;;;19.88;13.18;;;;;;;11.19;100.00;100029.72;4993955;28;20195;-75
2022/05/06 01:27:44;;;;;;;18.40;14.30;;;;;;;11.21;100.00;100029.63;4994143;28;20533;-75
2022/05/06 01:30:21;;;;;;;17.92;14.30;;;;;;;11.20;100.00;100034.16;4993032;28;20191;-74
2022/05/06 01:32:47;;;;;;;19.73;15.00;;;;;;;11.24;100.00;100030.34;4992303;28;20203;-75
2022/05/06 01:35:14;;;;;;;21.15;14.90;;;;;;;11.13;100.00;100037.28;4992277;28;20202;-75
2022/05/06 01:37:44;;;;;;;19.23;14.15;;;;;;;11.08;100.00;100032.13;4993099;28;20670;-75
2022/05/06 01:40:15;;;;;;;19.08;14.73;;;;;;;11.03;100.00;100043.16;4993170;28;20199;-76
2022/05/06 01:42:43;;;;;;;15.57;13.70;;;;;;;10.98;100.00;100047.03;4993283;28;20194;-77
2022/05/06 01:45:11;;;;;;;18.63;13.75;;;;;;;10.89;100.00;100043.00;4993240;28;20290;-76
2022/05/06 01:47:40;;;;;;;21.17;15.77;;;;;;;10.95;100.00;100045.38;4992859;28;20200;-75
2022/05/06 01:50:09;;;;;;;23.00;15.35;;;;;;;10.93;100.00;100047.28;4993421;28;20551;-75
2022/05/06 01:52:37;;;;;;;20.88;15.40;;;;;;;11.05;100.00;100043.91;4992423;28;20236;-76
2022/05/06 01:55:07;;;;;;;21.80;14.90;;;;;;;10.91;100.00;100035.69;4993591;28;20196;-75
2022/05/06 01:57:34;;;;;;;19.52;14.55;;;;;;;10.96;100.00;100027.38;4992873;28;20214;-75
2022/05/06 02:00:00;;;;;;;18.50;14.43;;;;;;;10.85;100.00;100036.00;4993072;28;20195;-77
2022/05/06 02:02:27;;;;;;;19.67;14.45;;;;;;;10.89;100.00;100034.03;4992630;28;20206;-76
2022/05/06 02:07:53;;;;;;;18.38;14.60;;;;;;;11.08;100.00;100026.75;4914161;29;20194;-75
2022/05/06 02:10:23;;;;;;;16.85;13.00;;;;;;;11.24;100.00;100032.19;4914167;29;20194;-75
2022/05/06 02:12:51;;;;;;;17.00;14.30;;;;;;;11.09;100.00;100024.91;4949377;28;20195;-75
2022/05/06 02:15:20;;;;;;;18.35;13.65;;;;;;;11.06;100.00;100016.03;4992035;28;20229;-75
2022/05/06 02:17:46;;;;;;;19.05;13.93;;;;;;;11.07;100.00;100027.66;4992597;28;20570;-76
2022/05/06 02:20:14;;;;;;;17.58;14.25;;;;;;;11.15;100.00;100016.50;4992959;28;20184;-76
2022/05/06 02:22:43;;;;;;;20.60;14.93;;;;;;;11.21;100.00;100016.16;4992707;28;20210;-74
2022/05/06 02:25:10;;;;;;;17.23;12.52;;;;;;;11.30;100.00;100020.19;4992976;28;20582;-76
2022/05/06 02:27:40;;;;;;;18.20;13.98;;;;;;;11.39;100.00;100020.53;4992928;28;20195;-76
2022/05/06 02:35:36;;;;;;;15.55;12.50;;;;;;;11.63;100.00;100012.06;4991744;28;20225;-77
2022/05/06 02:38:04;;;;;;;15.63;13.02;;;;;;;11.72;100.00;100014.25;4993048;28;20210;-75
2022/05/06 02:40:30;;;;;;;15.20;13.02;;;;;;;11.71;100.00;100012.47;4992663;28;20282;-76
2022/05/06 02:42:58;;;;;;;21.10;13.68;;;;;;;11.73;100.00;100012.41;4988632;28;20218;-76
2022/05/06 02:45:25;;;;;;;19.55;13.90;;;;;;;11.69;100.00;100009.88;4994246;28;20188;-75
2022/05/06 02:47:51;;;;;;;16.52;12.77;;;;;;;11.56;100.00;100010.66;4996375;28;20194;-74
2022/05/06 02:50:18;;;;;;;18.45;13.80;;;;;;;11.59;100.00;100010.47;4986340;28;20206;-76
2022/05/06 02:52:45;;;;;;;17.13;14.13;;;;;;;11.72;100.00;100013.38;4996853;28;20191;-75
2022/05/06 02:55:12;;;;;;;17.33;13.68;;;;;;;11.39;100.00;100011.59;4996566;28;20190;-76
2022/05/06 02:57:39;;;;;;;17.20;13.65;;;;;;;10.98;100.00;100017.38;4996373;28;20214;-76
2022/05/06 03:00:08;;;;;;;17.15;13.82;;;;;;;10.96;100.00;100017.47;4996173;28;20191;-75
2022/05/06 03:02:35;;;;;;;21.40;15.05;;;;;;;10.83;100.00;100021.75;4996356;28;20187;-75
2022/05/06 03:05:02;;;;;;;22.98;15.55;;;;;;;10.81;100.00;100021.00;4996756;28;20199;-75
2022/05/06 03:07:28;;;;;;;17.10;14.40;;;;;;;10.75;100.00;100021.31;4996350;28;20184;-76
2022/05/06 03:09:55;;;;;;;18.30;13.80;;;;;;;10.63;100.00;100020.13;4995691;28;20184;-75
2022/05/06 03:12:26;;;;;;;18.70;14.23;;;;;;;10.71;100.00;100019.72;4996359;28;20203;-76
2022/05/06 03:14:53;;;;;;;19.27;14.90;;;;;;;10.72;100.00;100018.75;4995769;28;20329;-76
2022/05/06 03:17:21;;;;;;;17.23;15.23;;;;;;;10.57;100.00;100020.44;4995830;28;20212;-76
2022/05/06 03:19:47;;;;;;;20.75;14.38;;;;;;;10.44;100.00;100020.16;4996071;28;20206;-76
2022/05/06 03:22:16;;;;;;;19.02;14.05;;;;;;;10.54;100.00;100026.84;4995732;28;20289;-76
2022/05/06 03:24:43;;;;;;;19.67;14.32;;;;;;;10.69;100.00;100017.09;4996338;28;20199;-76
2022/05/06 03:27:59;;;;;;;19.27;14.27;;;;;;;10.99;100.00;100011.03;4995163;28;20274;-77
2022/05/06 03:29:57;;;;;;;21.48;12.93;;;;;;;10.89;100.00;100013.34;4984029;28;20199;-76
2022/05/06 03:32:25;;;;;;;21.15;16.00;;;;;;;10.76;100.00;100012.25;4995770;28;20195;-76
2022/05/06 03:34:52;;;;;;;16.15;13.05;;;;;;;10.76;100.00;100012.25;4989193;28;20207;-74
2022/05/06 03:37:19;;;;;;;15.77;13.30;;;;;;;10.62;100.00;100011.16;4976538;28;20188;-76
2022/05/06 03:39:46;;;;;;;17.02;14.18;;;;;;;10.42;100.00;100014.88;4976618;28;20194;-74
2022/05/06 03:42:13;;;;;;;16.58;14.65;;;;;;;10.50;100.00;100021.69;4976721;28;20199;-76
2022/05/06 03:44:40;;;;;;;21.63;13.95;;;;;;;10.46;100.00;100017.41;4981200;28;20282;-77
2022/05/06 03:47:07;;;;;;;18.58;14.73;;;;;;;10.37;100.00;100025.00;4995568;28;20210;-75
2022/05/06 03:49:35;;;;;;;17.27;14.05;;;;;;;10.32;100.00;100020.81;4995563;28;20196;-76
2022/05/06 03:52:01;;;;;;;16.70;14.63;;;;;;;10.40;100.00;100023.97;4995738;28;20295;-76
2022/05/06 03:54:28;;;;;;;21.20;14.97;;;;;;;10.43;100.00;100021.13;4995854;28;20211;-75
2022/05/06 03:56:54;;;;;;;18.27;13.75;;;;;;;10.49;100.00;100017.25;4995045;28;20198;-75
2022/05/06 03:59:21;;;;;;;23.15;13.88;;;;;;;10.29;100.00;100023.63;4995576;28;20222;-75
2022/05/06 04:01:47;;;;;;;15.50;12.82;;;;;;;10.27;100.00;100028.22;4994331;28;20658;-75
2022/05/06 04:04:14;;;;;;;20.10;13.38;;;;;;;10.25;100.00;100032.81;4995555;28;20220;-75
2022/05/06 04:06:42;;;;;;;16.10;13.07;;;;;;;10.51;100.00;100028.81;4995182;28;20191;-76
2022/05/06 04:09:09;;;;;;;20.40;13.13;;;;;;;10.41;100.00;100025.72;4994783;28;20196;-76
2022/05/06 04:11:35;;;;;;;17.35;13.35;;;;;;;10.55;100.00;100028.56;4995325;28;20187;-76
2022/05/06 04:14:03;;;;;;;14.77;12.10;;;;;;;10.44;100.00;100026.41;4994562;28;20239;-75
2022/05/06 04:16:29;;;;;;;17.33;13.25;;;;;;;10.39;100.00;100027.63;4995200;28;20201;-76
2022/05/06 04:18:56;;;;;;;18.00;13.80;;;;;;;10.09;100.00;100030.88;4994599;28;20212;-76
2022/05/06 04:24:09;;;;;;;19.27;14.18;;;;;;;10.11;100.00;100028.97;4994681;28;20205;-77
2022/05/06 04:26:36;;;;;;;16.20;13.43;;;;;;;10.03;100.00;100040.09;4983642;28;20272;-76
2022/05/06 04:29:03;;;;;;;19.83;14.13;;;;;;;10.18;100.00;100041.16;4995140;28;20274;-75
2022/05/06 04:31:32;;;;;;;18.40;13.73;;;;;;;10.12;100.00;100040.59;4986488;28;20208;-75
2022/05/06 04:33:58;;;;;;;17.45;14.40;;;;;;;9.88;100.00;100043.56;4975703;28;20263;-75
2022/05/06 04:36:25;;;;;;;20.63;15.50;;;;;;;9.96;100.00;100040.47;4975558;28;20242;-76
2022/05/06 04:38:52;;;;;;;16.35;13.55;;;;;;;10.09;100.00;100047.00;4974928;28;20241;-75
2022/05/06 04:41:20;;;;;;;19.13;14.02;;;;;;;10.15;100.00;100051.19;4975684;28;20188;-76
2022/05/06 04:43:46;;;;;;;15.88;13.25;;;;;;;10.20;100.00;100047.34;4983647;28;20208;-76
2022/05/06 04:46:13;;;;;;;19.15;14.25;;;;;;;10.26;100.00;100053.38;4994714;28;20531;-76
2022/05/06 04:48:39;;;;;;;19.15;14.75;;;;;;;10.12;100.00;100054.06;4994770;28;20193;-75
2022/05/06 04:51:06;;;;;;;17.02;14.02;;;;;;;10.06;100.00;100047.13;4994582;28;20273;-76
2022/05/06 04:53:33;;;;;;;19.45;14.90;;;;;;;9.92;100.00;100049.63;4994525;28;20187;-74
2022/05/06 04:55:59;;;;;;;23.55;15.55;;;;;;;9.85;100.00;100051.75;4994384;28;20204;-75
2022/05/06 04:58:29;;;;;;;24.00;17.08;;;;;;;9.77;100.00;100056.63;4993911;28;20215;-76
2022/05/06 05:00:55;;;;;;;20.85;16.20;;;;;;;9.75;100.00;100064.78;4994508;28;20190;-75
2022/05/06 05:03:22;;;;;;;19.38;15.20;;;;;;;9.79;100.00;100063.69;4994479;28;20207;-76
2022/05/06 05:05:49;;;;;;;24.30;16.90;;;;;;;10.01;100.00;100068.03;4994324;28;20511;-76
2022/05/06 05:08:15;;;;;;;20.08;15.70;;;;;;;9.99;100.00;100068.13;4993349;28;20184;-76
2022/05/06 05:10:42;;;;;;;17.95;16.00;;;;;;;10.18;100.00;100073.47;4994330;28;20203;-76
2022/05/06 05:13:08;;;;;;;20.13;16.85;;;;;;;10.27;100.00;100077.53;4993904;28;20191;-75
2022/05/06 05:15:36;;;;;;;20.55;16.35;;;;;;;10.10;100.00;100074.78;4987911;28;20238;-75
2022/05/06 05:18:03;;;;;;;21.40;16.70;;;;;;;10.01;100.00;100073.41;4974304;28;20215;-76
2022/05/06 05:20:30;;;;;;;20.45;16.80;;;;;;;10.21;100.00;100078.69;4983948;28;20195;-76
2022/05/06 05:22:56;;;;;;;19.50;14.98;;;;;;;10.17;100.00;100071.69;4993964;28;20526;-75
2022/05/06 05:25:23;;;;;;;19.35;15.48;;;;;;;10.31;100.00;100075.56;4993947;28;20565;-75
2022/05/06 05:27:49;;;;;;;23.27;16.52;;;;;;;10.60;100.00;100080.38;4993734;28;20197;-74
2022/05/06 05:30:16;;;;;;;19.95;14.18;;;;;;;10.73;100.00;100077.94;4993796;28;20287;-76
2022/05/06 05:32:44;;;;;;;21.52;15.15;;;;;;;10.95;100.00;100083.09;4993460;28;20190;-74
2022/05/06 05:35:10;;;;;;;18.70;15.60;;;;;;;11.07;100.00;100084.25;4993430;28;20210;-76
2022/05/06 05:37:37;;;;;;;20.35;14.65;;;;;;;11.00;100.00;100089.09;4993144;28;20195;-76
2022/05/06 05:40:05;;;;;;;16.35;14.73;;;;;;;10.97;100.00;100075.81;4993222;28;20305;-74
2022/05/06 05:42:31;;;;;;;18.15;15.23;;;;;;;11.03;100.00;100078.19;4993139;28;20207;-75
2022/05/06 05:50:29;;;;;;;17.60;14.63;;;;;;;11.32;100.00;100083.84;4985185;28;20214;-76
2022/05/06 05:52:56;;;;;;;16.58;13.75;;;;;;;11.19;100.00;100077.34;4973174;28;20198;-77
2022/05/06 05:55:23;;;;;;;20.75;14.50;;;;;;;11.22;100.00;100088.00;4974976;28;20305;-77
2022/05/06 05:57:49;;;;;;;18.48;16.38;;;;;;;11.54;100.00;100088.09;4992411;28;20203;-77
2022/05/06 06:00:16;;;;;;;18.00;14.75;;;;;;;11.82;100.00;100082.91;4981371;28;20208;-77
2022/05/06 06:02:44;;;;;;;17.98;14.88;;;;;;;11.78;100.00;100086.75;4972779;28;20191;-77
2022/05/06 06:05:11;;;;;;;26.67;15.15;;;;;;;12.07;100.00;100089.66;4988150;28;20199;-76
2022/05/06 06:07:38;;;;;;;19.60;14.95;;;;;;;12.44;100.00;100083.03;4983413;28;20195;-76
2022/05/06 06:10:05;;;;;;;19.08;14.85;;;;;;;12.63;100.00;100079.25;4992381;28;20208;-74
2022/05/06 06:12:31;;;;;;;16.15;14.40;;;;;;;12.42;100.00;100075.97;4992353;28;20348;-76
2022/05/06 06:14:58;;;;;;;18.40;15.38;;;;;;;12.39;100.00;100076.13;4991990;28;20250;-76
2022/05/06 06:17:25;;;;;;;19.42;14.35;;;;;;;12.59;100.00;100083.94;4987397;28;20187;-75
2022/05/06 06:19:53;;;;;;;14.95;13.35;;;;;;;12.74;100.00;100082.19;4985438;28;20277;-76
2022/05/06 06:22:19;;;;;;;15.10;13.05;;;;;;;13.02;100.00;100084.09;4992289;28;20556;-76
2022/05/06 06:24:46;;;;;;;14.70;13.02;;;;;;;13.23;100.00;100086.44;4992340;28;20214;-76
2022/05/06 06:27:12;;;;;;;18.40;12.52;;;;;;;13.59;98.16;100082.44;4992114;28;20195;-76
2022/05/06 06:29:39;;;;;;;14.70;12.18;;;;;;;13.82;95.52;100079.19;4992620;28;20205;-77
2022/05/06 06:32:06;;;;;;;15.85;12.20;;;;;;;13.95;93.58;100082.84;4992910;28;20199;-77
2022/05/06 06:34:33;;;;;;;13.27;11.88;;;;;;;14.00;93.21;100084.34;4992683;28;20207;-75
2022/05/06 06:37:01;;;;;;;12.40;11.18;;;;;;;13.96;92.28;100079.16;4991893;28;20193;-76
2022/05/06 06:39:27;;;;;;;12.82;11.02;;;;;;;13.86;91.74;100079.81;4992552;28;21003;-76
2022/05/06 06:41:54;;;;;;;12.82;11.50;;;;;;;14.04;91.19;100075.06;4992374;28;20204;-76
2022/05/06 06:44:21;;;;;;;11.63;9.68;;;;;;;14.12;87.46;100073.59;4992657;28;20967;-77
2022/05/06 06:46:47;;;;;;;14.13;10.00;;;;;;;14.11;86.66;100076.41;4986914;28;20198;-76
2022/05/06 06:49:14;;;;;;;11.25;9.23;;;;;;;14.21;84.28;100079.41;4973487;28;20182;-75
2022/05/06 06:51:40;;;;;;;9.75;8.82;;;;;;;14.60;82.64;100086.75;4992376;28;20193;-74
2022/05/06 06:54:08;;;;;;;11.55;8.68;;;;;;;14.76;79.81;100079.31;4989388;28;20211;-76
2022/05/06 06:56:36;;;;;;;11.50;8.35;;;;;;;14.94;77.40;100081.75;4979757;28;20515;-76
2022/05/06 06:59:03;;;;;;;7.97;6.72;;;;;;;15.07;74.17;100084.50;4992633;28;20664;-75
2022/05/06 07:01:32;;;;;;;9.02;6.93;;;;;;;15.25;73.28;100080.50;4992140;28;20209;-76
2022/05/06 07:04:00;;;;;;;9.32;7.10;;;;;;;15.24;72.74;100078.78;4983174;28;20192;-77
2022/05/06 07:11:56;;;;;;;6.72;6.10;;;;;;;15.90;67.19;100076.81;4974899;28;20206;-76
2022/05/06 07:14:25;;;;;;;10.23;6.18;;;;;;;15.76;66.68;100085.06;4977878;28;20720;-77
2022/05/06 07:16:52;;;;;;;8.60;5.53;;;;;;;15.64;66.59;100087.66;4991950;28;20279;-76
2022/05/06 07:19:20;;;;;;;11.85;5.65;;;;;;;15.80;65.22;100082.00;4992488;28;20220;-76
2022/05/06 07:21:49;;;;;;;7.20;5.40;;;;;;;15.93;65.20;100082.00;4988322;28;20610;-76
2022/05/06 07:24:18;;;;;;;9.70;5.47;;;;;;;16.00;64.17;100083.28;4992785;28;20262;-75
2022/05/06 07:26:45;;;;;;;8.57;5.10;;;;;;;16.32;62.06;100077.31;4992432;28;20267;-76
2022/05/06 07:29:12;;;;;;;7.03;5.30;;;;;;;16.46;60.69;100085.34;4992034;28;20198;-76
2022/05/06 07:31:39;;;;;;;5.05;4.55;;;;;;;16.86;58.46;100078.75;4983624;28;20230;-75
2022/05/06 07:34:05;;;;;;;5.40;4.60;;;;;;;17.08;57.83;100078.81;4989011;28;20188;-75
2022/05/06 07:36:32;;;;;;;7.30;5.00;;;;;;;17.15;55.74;100078.34;4976934;28;20199;-75
2022/05/06 07:38:59;;;;;;;7.80;3.83;;;;;;;17.21;55.16;100078.75;4976651;28;20240;-76
2022/05/06 07:41:27;;;;;;;6.50;4.10;;;;;;;17.28;54.75;100074.53;4976716;28;20188;-76
2022/05/06 07:43:54;;;;;;;10.93;5.45;;;;;;;17.35;55.46;100082.25;4976247;28;20195;-76
2022/05/06 07:46:20;;;;;;;10.07;5.38;;;;;;;17.63;54.18;100079.03;4977010;28;20215;-76
2022/05/06 07:48:47;;;;;;;5.85;4.75;;;;;;;17.87;53.84;100080.81;4976931;28;20184;-75
2022/05/06 07:51:13;;;;;;;6.18;4.78;;;;;;;18.00;52.69;100077.94;4977401;28;20195;-76
2022/05/06 07:53:40;;;;;;;9.27;4.63;;;;;;;18.25;52.98;100082.28;4976906;28;20192;-75
2022/05/06 07:56:07;;;;;;;7.05;4.63;;;;;;;18.06;51.15;100077.47;4977077;28;20204;-77
2022/05/06 07:58:35;;;;;;;5.82;4.13;;;;;;;18.03;50.70;100078.59;4976960;28;20206;-75
2022/05/06 08:01:01;;;;;;;5.05;3.85;;;;;;;18.32;50.23;100078.06;4985649;28;20216;-77
2022/05/06 08:06:12;;;;;;;9.00;5.28;;;;;;;18.78;48.95;100078.81;4994620;28;20554;-76
2022/05/06 08:08:38;;;;;;;4.60;4.18;;;;;;;18.88;47.89;100064.25;4995199;28;20193;-76
2022/05/06 08:11:05;;;;;;;5.90;3.80;;;;;;;18.64;48.09;100069.03;4994758;28;20208;-77
2022/05/06 08:13:31;;;;;;;6.82;4.40;;;;;;;18.80;48.18;100069.50;4993972;28;20197;-76
2022/05/06 08:15:59;;;;;;;6.00;4.03;;;;;;;19.07;48.16;100065.41;4984471;28;20202;-76
2022/05/06 08:18:27;;;;;;;4.38;3.58;;;;;;;18.92;46.42;100064.84;4976103;28;20642;-77
2022/05/06 08:20:55;;;;;;;4.95;4.20;;;;;;;19.03;46.57;100072.13;4992998;28;20285;-76
2022/05/06 08:23:23;;;;;;;6.72;3.92;;;;;;;18.95;46.28;100070.91;4984801;28;20198;-78
2022/05/06 08:25:50;;;;;;;3.55;3.17;;;;;;;18.92;45.29;100081.22;4982912;28;20196;-77
2022/05/06 08:28:19;;;;;;;4.30;3.10;;;;;;;18.62;45.95;100087.38;4995131;28;20623;-78
2022/05/06 08:30:46;;;;;;;4.00;3.40;;;;;;;18.72;44.46;100086.50;4993245;28;20197;-75
2022/05/06 08:33:14;;;;;;;6.85;3.63;;;;;;;18.72;43.21;100070.13;4995052;28;20194;-76
2022/05/06 08:35:41;;;;;;;3.85;3.40;;;;;;;18.76;42.94;100076.16;4995183;28;20192;-76
2022/05/06 08:38:08;;;;;;;5.07;2.92;;;;;;;18.73;42.98;100081.91;4995246;28;20205;-76
2022/05/06 08:40:35;;;;;;;4.03;2.88;;;;;;;18.54;43.47;100080.72;4994425;28;20217;-76
2022/05/06 08:43:03;;;;;;;4.57;3.10;;;;;;;18.88;43.11;100072.44;4993230;28;20202;-76
2022/05/06 08:51:02;;;;;;;4.68;3.45;;;;;;;19.03;40.55;100077.56;4976251;28;20194;-75
2022/05/06 08:53:31;;;;;;;7.32;4.00;;;;;;;19.17;40.14;100089.06;4993621;28;20198;-77
2022/05/06 08:55:59;;;;;;;7.32;3.25;;;;;;;19.19;40.37;100077.97;4994905;28;20572;-75
2022/05/06 08:58:27;;;;;;;7.03;3.70;;;;;;;19.20;39.90;100077.00;4994972;28;20210;-76
2022/05/06 09:01:01;;;;;;;6.63;3.40;;;;;;;18.94;39.30;100090.16;4991332;28;20607;-77
2022/05/06 09:03:29;;;;;;;7.18;3.70;;;;;;;19.07;39.25;100089.97;4994054;28;20216;-75
2022/05/06 09:05:57;;;;;;;8.43;3.22;;;;;;;19.14;39.58;100092.03;4992347;28;20297;-76
2022/05/06 09:08:23;;;;;;;5.38;2.78;;;;;;;19.09;39.37;100093.44;4991529;28;20210;-77
2022/05/06 09:11:03;;;;;;;6.10;3.60;;;;;;;18.93;39.12;100083.81;4993444;28;20181;-75
2022/05/06 09:13:30;;;;;;;5.78;3.78;;;;;;;19.09;39.04;100085.25;4993850;28;20678;-77
2022/05/06 09:19:17;;;;;;;5.30;2.70;;;;;;;19.46;38.03;100087.50;4975134;28;20595;-75
2022/05/06 09:22:08;;;;;;;10.38;5.05;;;;;;;19.45;38.24;100088.50;4989727;28;20225;-76
2022/05/06 09:24:37;;;;;;;3.13;2.75;;;;;;;18.98;38.85;100086.16;4994232;28;20190;-77
2022/05/06 09:27:05;;;;;;;4.07;2.60;;;;;;;19.20;37.89;100082.47;4994074;28;20276;-75
2022/05/06 09:29:34;;;;;;;3.42;2.83;;;;;;;19.23;38.18;100087.63;4994433;28;20216;-76
2022/05/06 09:32:20;;;;;;;2.80;2.50;;;;;;;19.73;38.02;100081.50;4993640;28;20227;-76
2022/05/06 09:34:49;;;;;;;5.32;3.25;;;;;;;19.87;37.82;100083.84;4993126;28;20648;-75
2022/05/06 09:37:34;;;;;;;6.10;2.90;;;;;;;19.44;37.62;100089.50;4993490;28;20302;-76
2022/05/06 09:40:15;;;;;;;6.90;3.63;;;;;;;19.50;37.29;100103.47;4994115;28;20241;-77
2022/05/06 09:42:43;;;;;;;2.72;2.53;;;;;;;19.37;37.44;100087.28;4992941;28;20190;-78
2022/05/06 09:45:12;;;;;;;6.93;3.10;;;;;;;19.28;38.24;100090.84;4994082;28;20196;-77
2022/05/06 09:47:40;;;;;;;3.20;2.85;;;;;;;19.69;37.73;100091.81;4993969;28;20213;-75
2022/05/06 09:50:10;;;;;;;6.97;4.10;;;;;;;19.79;37.43;100087.28;4993791;28;20226;-75
2022/05/06 09:52:37;;;;;;;4.55;3.33;;;;;;;19.44;37.63;100093.09;4992384;28;20574;-76
2022/05/06 09:55:06;;;;;;;5.75;3.20;;;;;;;19.81;38.01;100076.22;4993710;28;20202;-77
2022/05/06 09:57:35;;;;;;;7.38;4.40;;;;;;;20.27;37.34;100068.47;4993748;28;20202;-76
2022/05/06 10:00:02;;;;;;;5.18;2.65;;;;;;;19.81;37.99;100073.50;4988710;28;20211;-78
2022/05/06 10:02:29;;;;;;;4.32;2.65;;;;;;;19.86;38.08;100079.41;4993417;28;20313;-77
2022/05/06 10:04:56;;;;;;;6.43;3.28;;;;;;;19.91;37.89;100079.84;4993452;28;20191;-75
2022/05/06 10:07:25;;;;;;;3.28;2.10;;;;;;;19.54;38.54;100087.72;4991695;28;20286;-75
2022/05/06 10:10:01;;;;;;;6.53;3.40;;;;;;;19.83;37.74;100087.00;4983192;28;20259;-75
2022/05/06 10:12:31;;;;;;;4.13;3.67;;;;;;;20.01;37.65;100090.81;4980487;28;20196;-75
2022/05/06 10:15:00;;;;;;;2.90;2.50;;;;;;;19.89;37.11;100092.78;4975536;28;20253;-74
2022/05/06 10:17:52;;;;;;;6.60;2.40;;;;;;;19.98;37.25;100089.22;4984532;28;20221;-75
2022/05/06 10:20:59;;;;;;;3.60;2.33;;;;;;;20.14;36.20;100088.72;4975837;28;20494;-74
2022/05/06 10:23:49;;;;;;;3.67;2.92;;;;;;;20.16;36.38;100094.06;4977926;28;20445;-74
2022/05/06 10:26:45;;;;;;;3.27;2.50;;;;;;;20.11;36.79;100086.25;4993546;28;20591;-75
2022/05/06 10:32:54;;;;;;;2.85;2.40;;;;;;;19.73;37.59;100070.56;4986393;28;20457;-76
2022/05/06 10:35:43;;;;;;;3.97;2.70;;;;;;;19.69;38.53;100072.69;4993363;28;20911;-76
2022/05/06 10:38:26;;;;;;;4.07;3.58;;;;;;;20.33;37.83;100070.66;4992860;28;20201;-74
2022/05/06 10:40:57;;;;;;;3.83;2.60;;;;;;;20.28;37.44;100079.25;4973561;28;20317;-74
2022/05/06 10:43:55;;;;;;;2.90;2.60;;;;;;;20.65;36.45;100066.84;4975329;28;20453;-75
2022/05/06 10:46:40;;;;;;;3.30;2.40;;;;;;;20.73;35.87;100062.38;4992609;28;20530;-76
2022/05/06 10:49:50;;;;;;;3.77;2.50;;;;;;;20.47;36.33;100064.78;4973292;28;20446;-76
2022/05/06 10:52:53;;;;;;;5.93;3.23;;;;;;;20.22;35.52;100070.78;4973700;28;20438;-74
2022/05/06 10:55:22;;;;;;;4.30;3.10;;;;;;;20.02;36.62;100067.09;4973139;28;20439;-75
2022/05/06 10:58:09;;;;;;;5.27;3.00;;;;;;;20.17;37.11;100061.13;4982551;28;20450;-74
2022/05/06 11:00:40;;;;;;;4.07;2.23;;;;;;;20.38;36.80;100060.16;4992200;28;20513;-75
2022/05/06 11:03:07;;;;;;;3.77;2.90;;;;;;;20.68;36.61;100066.56;4992768;28;20753;-76
2022/05/06 11:05:33;;;;;;;3.70;2.10;;;;;;;20.72;36.58;100057.06;4993702;28;20438;-76
2022/05/06 11:08:02;;;;;;;3.83;2.37;;;;;;;20.95;34.68;100068.59;4994060;28;20446;-75
2022/05/06 11:10:31;;;;;;;5.67;2.27;;;;;;;20.37;35.19;100058.41;4985574;28;20968;-75
2022/05/06 11:12:58;;;;;;;4.33;1.97;;;;;;;20.57;36.08;100042.94;4981036;28;20858;-77
2022/05/06 11:15:29;;;;;;;3.30;2.30;;;;;;;20.76;35.86;100047.56;4995985;28;20956;-75
2022/05/06 11:17:58;;;;;;;4.20;2.87;;;;;;;20.89;35.73;100050.00;4996669;28;20441;-76
2022/05/06 11:20:27;;;;;;;5.93;2.70;;;;;;;21.04;35.53;100051.28;4992289;28;20483;-75
2022/05/06 11:22:56;;;;;;;5.40;3.30;;;;;;;21.44;34.95;100045.63;4976528;28;20443;-77
2022/05/06 11:25:24;;;;;;;4.30;2.63;;;;;;;21.54;35.36;100052.94;4976409;28;20825;-77
2022/05/06 11:27:52;;;;;;;3.70;2.10;;;;;;;20.81;36.18;100048.00;4993735;28;20461;-75
2022/05/06 11:30:20;;;;;;;6.73;2.57;;;;;;;21.07;35.53;100041.91;4994258;28;20542;-76
2022/05/06 11:32:50;;;;;;;3.00;2.10;;;;;;;21.15;35.64;100048.38;4995209;28;20881;-77
2022/05/06 11:35:21;;;;;;;6.00;2.33;;;;;;;21.57;35.43;100038.94;4994745;28;20433;-76
2022/05/06 11:37:48;;;;;;;5.33;2.53;;;;;;;21.80;34.84;100037.56;4995077;28;20435;-76
2022/05/06 11:40:35;;;;;;;8.33;3.07;;;;;;;22.10;34.37;100032.81;4995163;28;20482;-75
2022/05/06 11:43:03;;;;;;;5.47;2.90;;;;;;;22.38;33.96;100030.91;4995419;28;20905;-77
2022/05/06 11:48:18;;;;;;;3.93;3.53;;;;;;;21.60;36.14;100019.47;4995409;28;20410;-76
2022/05/06 11:50:46;;;;;;;3.67;2.50;;;;;;;21.78;35.84;100016.81;4995090;28;20550;-78
2022/05/06 11:53:15;;;;;;;4.33;2.40;;;;;;;21.58;36.01;100021.50;4995168;28;20461;-74
2022/05/06 11:55:44;;;;;;;2.80;2.10;;;;;;;21.71;36.05;100011.06;4995327;28;20460;-75
2022/05/06 11:58:14;;;;;;;6.10;2.50;;;;;;;22.27;35.24;100015.56;4990138;28;20447;-77
2022/05/06 12:00:41;;;;;;;3.53;2.70;;;;;;;22.05;35.71;100013.22;4981842;28;20483;-77